Check out our new BloomSky Weather System.

Active alerts

Houston, TX
  Details for Houston, TX River Flood Warning  +1 additional alert
Fort Bend, TX
  Details for Fort Bend, TX River Flood Warning  +1 additional alert


Thunder radar  blitzortung!


Rain radar more information rain snow radar


Visit our other weather sites:

Template documentation
and downloads

And another site



Weather Underground History page Text

Daily Summary for January 11, 2018 Units:  English    Metric   Both
« Previous Day
Next Day »
Daily Weekly Monthly Yearly Custom
  High: Low: Average:
Temperature: TemperatureF °F 39.2 °F 56.9 °F
Dew Point: DewpointF °F 26.1 °F 53 °F
Humidity: Humidity % 59 % 87 %
Wind Speed: WindSpeedMPH mph 0.0 mph 3.3 mph
Wind Gust: WindSpeedGustMPH mph - -
Wind:- - SW
Pressure: PressureIn in 29.70 in -
Precipitation: 0.00 in    
Historical Graphs
 
 
Tabular Data for January 11, 2018
Time Temperature Dew Point Pressure Wind Wind Speed Wind Gust Humidity Rainfall Rate (Hourly)
TemperatureF °F DewpointF °F PressureIn in Calm     Humidity % HourlyPrecipIn in
00:02 60.4 °F 59.0 °F 29.79 in SE 1.0 mph 3.0 mph 95 % 0.00 in
00:17 60.6 °F 59.2 °F 29.79 in SE 3.0 mph 5.0 mph 95 % 0.00 in
00:22 60.8 °F 59.0 °F 29.79 in ESE 2.0 mph 5.0 mph 94 % 0.00 in
00:30 61.0 °F 59.2 °F 29.79 in SE 5.0 mph 5.0 mph 94 % 0.00 in
00:41 61.2 °F 59.2 °F 29.78 in ESE 2.0 mph 6.0 mph 93 % 0.00 in
00:53 61.2 °F 58.8 °F 29.77 in ESE 2.0 mph 6.0 mph 92 % 0.00 in
01:15 61.5 °F 58.8 °F 29.76 in SE 3.0 mph 8.0 mph 91 % 0.00 in
01:22 61.5 °F 58.6 °F 29.75 in SE 5.0 mph 8.0 mph 90 % 0.00 in
01:32 61.5 °F 58.6 °F 29.78 in NNW 1.0 mph 9.0 mph 90 % 0.00 in
01:45 61.5 °F 58.8 °F 29.81 in NW 2.0 mph 5.0 mph 91 % 0.00 in
01:55 61.5 °F 58.6 °F 29.81 in Calm   3.0 mph 90 % 0.00 in
02:13 61.3 °F 58.6 °F 29.81 in Calm   2.0 mph 91 % 0.00 in
02:20 61.2 °F 58.5 °F 29.81 in Calm   1.0 mph 91 % 0.00 in
02:28 61.0 °F 58.3 °F 29.80 in Calm   1.0 mph 91 % 0.00 in
02:33 60.8 °F 58.1 °F 29.81 in Calm   1.0 mph 91 % 0.00 in
02:38 60.6 °F 58.3 °F 29.81 in Calm   1.0 mph 92 % 0.00 in
02:50 60.4 °F 58.1 °F 29.80 in Calm   1.0 mph 92 % 0.00 in
02:57 60.4 °F 58.1 °F 29.80 in Calm   1.0 mph 92 % 0.00 in
03:19 60.4 °F 58.5 °F 29.79 in Calm   1.0 mph 93 % 0.00 in
03:39 60.3 °F 58.5 °F 29.79 in Calm   1.0 mph 94 % 0.00 in
03:51 60.1 °F 58.3 °F 29.79 in Calm   1.0 mph 94 % 0.00 in
04:05 59.7 °F 57.9 °F 29.79 in Calm   2.0 mph 94 % 0.00 in
04:20 59.7 °F 58.3 °F 29.79 in Calm   1.0 mph 95 % 0.00 in
04:26 59.5 °F 58.1 °F 29.79 in Calm   1.0 mph 95 % 0.00 in
04:31 59.5 °F 58.1 °F 29.78 in Calm   1.0 mph 95 % 0.00 in
04:37 59.5 °F 58.1 °F 29.78 in Calm   1.0 mph 95 % 0.00 in
04:53 59.4 °F 57.9 °F 29.78 in ESE 1.0 mph   95 % 0.00 in
04:59 59.4 °F 57.9 °F 29.78 in Calm   1.0 mph 95 % 0.00 in
05:05 59.4 °F 58.3 °F 29.77 in Calm   1.0 mph 96 % 0.00 in
05:13 59.4 °F 58.3 °F 29.77 in Calm   1.0 mph 96 % 0.00 in
05:31 59.5 °F 58.5 °F 29.77 in Calm   2.0 mph 96 % 0.00 in
05:39 59.5 °F 58.5 °F 29.77 in Calm   2.0 mph 96 % 0.00 in
05:44 59.5 °F 58.5 °F 29.76 in ESE 2.0 mph 2.0 mph 96 % 0.00 in
05:54 59.5 °F 58.5 °F 29.77 in Calm   2.0 mph 96 % 0.00 in
06:01 59.7 °F 58.8 °F 29.76 in ENE 3.0 mph 3.0 mph 97 % 0.00 in
06:06 59.7 °F 58.8 °F 29.76 in SSE 1.0 mph 3.0 mph 97 % 0.00 in
06:13 59.7 °F 58.8 °F 29.76 in SE 1.0 mph 3.0 mph 97 % 0.00 in
06:18 59.9 °F 59.0 °F 29.76 in Calm   3.0 mph 97 % 0.00 in
06:28 60.1 °F 59.2 °F 29.76 in Calm   4.0 mph 97 % 0.00 in
06:33 60.1 °F 59.2 °F 29.77 in Calm   4.0 mph 97 % 0.00 in
06:42 60.1 °F 59.2 °F 29.77 in Calm   4.0 mph 97 % 0.00 in
06:47 60.3 °F 59.4 °F 29.77 in Calm   2.0 mph 97 % 0.00 in
06:53 60.3 °F 59.4 °F 29.78 in Calm   2.0 mph 97 % 0.00 in
07:01 60.3 °F 59.4 °F 29.78 in ESE 1.0 mph 1.0 mph 97 % 0.00 in
07:24 60.1 °F 59.2 °F 29.78 in Calm   1.0 mph 97 % 0.00 in
07:31 60.1 °F 59.2 °F 29.78 in SE 2.0 mph 2.0 mph 97 % 0.00 in
07:45 60.4 °F 59.9 °F 29.78 in Calm   2.0 mph 98 % 0.00 in
07:50 60.4 °F 59.9 °F 29.78 in Calm   3.0 mph 98 % 0.00 in
07:58 60.6 °F 60.1 °F 29.78 in ESE 2.0 mph 3.0 mph 98 % 0.00 in
08:03 60.6 °F 60.1 °F 29.78 in SE 2.0 mph 4.0 mph 98 % 0.00 in
08:08 61.0 °F 60.4 °F 29.79 in Calm   4.0 mph 98 % 0.00 in
08:14 61.0 °F 60.4 °F 29.79 in ESE 1.0 mph 4.0 mph 98 % 0.00 in
08:19 61.0 °F 60.4 °F 29.80 in Calm   3.0 mph 98 % 0.00 in
08:27 61.2 °F 60.6 °F 29.80 in Calm   2.0 mph 98 % 0.00 in
08:36 61.2 °F 60.6 °F 29.80 in Calm   1.0 mph 98 % 0.00 in
08:47 61.3 °F 60.8 °F 29.80 in Calm   2.0 mph 98 % 0.00 in
08:55 61.3 °F 60.8 °F 29.80 in SSE 1.0 mph 3.0 mph 98 % 0.00 in
09:00 61.3 °F 60.8 °F 29.80 in SSE 1.0 mph 3.0 mph 98 % 0.00 in
09:11 61.5 °F 61.0 °F 29.81 in ESE 1.0 mph 4.0 mph 98 % 0.00 in
09:22 61.7 °F 61.2 °F 29.81 in East 1.0 mph 2.0 mph 98 % 0.00 in
09:29 61.9 °F 61.3 °F 29.81 in ESE 1.0 mph 2.0 mph 98 % 0.00 in
09:45 62.1 °F 61.2 °F 29.81 in ESE 1.0 mph 2.0 mph 97 % 0.00 in
09:50 62.1 °F 61.2 °F 29.81 in Calm   2.0 mph 97 % 0.00 in
09:57 62.2 °F 61.3 °F 29.81 in Calm   3.0 mph 97 % 0.00 in
10:11 62.4 °F 61.5 °F 29.81 in ENE 1.0 mph 3.0 mph 97 % 0.00 in
10:16 62.4 °F 61.5 °F 29.81 in Calm   3.0 mph 97 % 0.00 in
10:21 62.8 °F 61.9 °F 29.81 in ESE 1.0 mph 3.0 mph 97 % 0.00 in
10:33 62.8 °F 61.9 °F 29.81 in Calm   2.0 mph 97 % 0.00 in
10:42 63.0 °F 62.1 °F 29.81 in Calm   3.0 mph 97 % 0.00 in
10:48 63.0 °F 62.1 °F 29.81 in Calm   3.0 mph 97 % 0.00 in
11:03 63.1 °F 62.1 °F 29.80 in ESE 1.0 mph 2.0 mph 96 % 0.00 in
11:08 63.1 °F 62.1 °F 29.79 in ESE 1.0 mph 3.0 mph 96 % 0.00 in
11:20 63.3 °F 62.2 °F 29.78 in East 1.0 mph 3.0 mph 96 % 0.00 in
11:25 63.3 °F 62.2 °F 29.78 in East 1.0 mph 4.0 mph 96 % 0.00 in
11:46 64.2 °F 63.1 °F 29.77 in ESE 1.0 mph 5.0 mph 96 % 0.00 in
11:54 64.6 °F 63.5 °F 29.76 in ESE 2.0 mph 5.0 mph 96 % 0.00 in
12:19 65.1 °F 63.3 °F 29.74 in SE 2.0 mph 7.0 mph 94 % 0.00 in
12:24 65.1 °F 63.3 °F 29.74 in South 3.0 mph 7.0 mph 94 % 0.00 in
12:44 65.5 °F 63.3 °F 29.73 in South 2.0 mph 7.0 mph 93 % 0.00 in
12:50 65.5 °F 63.3 °F 29.73 in SE 3.0 mph 6.0 mph 93 % 0.00 in
12:55 65.3 °F 63.1 °F 29.73 in SW 2.0 mph 6.0 mph 93 % 0.00 in
13:03 64.9 °F 63.1 °F 29.73 in SSW 1.0 mph 6.0 mph 94 % 0.00 in
13:12 64.6 °F 62.8 °F 29.73 in Calm   3.0 mph 94 % 0.00 in
13:19 64.2 °F 62.8 °F 29.75 in West 3.0 mph 3.0 mph 95 % 0.00 in
14:02 59.0 °F 58.1 °F 29.70 in Calm   1.0 mph 97 % 0.00 in
14:09 60.8 °F 60.3 °F 29.71 in Calm   1.0 mph 98 % 0.00 in
14:17 62.8 °F 62.4 °F 29.71 in Calm   2.0 mph 99 % 0.00 in
14:28 64.0 °F 63.5 °F 29.72 in Calm   2.0 mph 98 % 0.00 in
14:34 64.6 °F 64.0 °F 29.72 in WSW 2.0 mph 3.0 mph 98 % 0.00 in
14:50 66.0 °F 65.5 °F 29.71 in WSW 1.0 mph 3.0 mph 98 % 0.00 in
14:55 66.0 °F 65.5 °F 29.71 in Calm   3.0 mph 98 % 0.00 in
15:04 66.4 °F 65.8 °F 29.71 in Calm   3.0 mph 98 % 0.00 in
15:09 66.0 °F 65.1 °F 29.70 in WNW 3.0 mph 3.0 mph 97 % 0.00 in
15:21 65.8 °F 65.3 °F 29.71 in Calm   3.0 mph 98 % 0.00 in
15:27 65.8 °F 64.9 °F 29.71 in NNW 1.0 mph 2.0 mph 97 % 0.00 in
15:32 66.0 °F 65.5 °F 29.71 in NNW 1.0 mph 2.0 mph 98 % 0.00 in
15:44 65.8 °F 64.9 °F 29.71 in Calm   3.0 mph 97 % 0.00 in
15:50 65.8 °F 64.9 °F 29.71 in Calm   3.0 mph 97 % 0.00 in
16:19 62.1 °F 57.2 °F 29.76 in North 6.0 mph 31.0 mph 84 % 0.00 in
16:36 59.2 °F 52.0 °F 29.79 in NW 9.0 mph 24.0 mph 77 % 0.00 in
16:37 59.2 °F 52.0 °F 29.79 in NNW 9.0 mph 24.0 mph 77 % 0.00 in
16:44 58.8 °F 51.3 °F 29.79 in NW 13.0 mph 24.0 mph 76 % 0.00 in
16:51 58.6 °F 50.7 °F 29.80 in NNW 8.0 mph 25.0 mph 75 % 0.00 in
16:58 58.3 °F 50.4 °F 29.81 in NW 21.0 mph 25.0 mph 75 % 0.00 in
17:04 57.9 °F 48.6 °F 29.82 in NNW 8.0 mph 28.0 mph 71 % 0.00 in
17:30 55.8 °F 45.0 °F 29.86 in NNW 9.0 mph 22.0 mph 67 % 0.00 in
17:41 54.7 °F 42.8 °F 29.87 in NNW 13.0 mph 23.0 mph 64 % 0.00 in
17:43 54.5 °F 42.6 °F 29.87 in NNW 9.0 mph 23.0 mph 64 % 0.00 in
18:03 52.5 °F 41.2 °F 29.88 in NNE 2.0 mph 21.0 mph 65 % 0.00 in
18:12 52.0 °F 41.0 °F 29.89 in WNW 6.0 mph 21.0 mph 66 % 0.00 in
18:17 51.6 °F 40.6 °F 29.90 in NW 12.0 mph 18.0 mph 66 % 0.00 in
18:31 50.5 °F 39.9 °F 29.91 in NW 8.0 mph 20.0 mph 67 % 0.00 in
18:39 49.8 °F 39.4 °F 29.92 in NNW 11.0 mph 19.0 mph 67 % 0.00 in
18:46 49.3 °F 39.2 °F 29.92 in NNW 6.0 mph 27.0 mph 68 % 0.00 in
18:52 48.0 °F 38.3 °F 29.93 in NNW 14.0 mph 27.0 mph 69 % 0.00 in
19:09 46.6 °F 37.4 °F 29.94 in NNW 7.0 mph 23.0 mph 70 % 0.00 in
19:18 46.0 °F 36.9 °F 29.95 in NNW 7.0 mph 21.0 mph 70 % 0.00 in
19:29 45.3 °F 36.1 °F 29.95 in North 23.0 mph 23.0 mph 70 % 0.00 in
19:37 45.0 °F 35.8 °F 29.96 in West 8.0 mph 23.0 mph 70 % 0.00 in
19:42 44.8 °F 36.0 °F 29.96 in NW 11.0 mph 23.0 mph 71 % 0.00 in
19:49 44.6 °F 35.4 °F 29.96 in NE 9.0 mph 16.0 mph 70 % 0.00 in
19:54 44.4 °F 35.6 °F 29.96 in NNW 3.0 mph 18.0 mph 71 % 0.00 in
19:59 44.4 °F 35.6 °F 29.96 in NNW 3.0 mph 18.0 mph 71 % 0.00 in
20:10 44.2 °F 35.1 °F 29.97 in NW 12.0 mph 19.0 mph 70 % 0.00 in
20:20 44.1 °F 34.5 °F 29.97 in NW 16.0 mph 23.0 mph 69 % 0.00 in
20:27 44.1 °F 34.5 °F 29.98 in NNW 11.0 mph 23.0 mph 69 % 0.00 in
20:47 43.7 °F 33.8 °F 29.99 in NW 6.0 mph 20.0 mph 68 % 0.00 in
21:03 43.3 °F 33.4 °F 29.99 in NNW 6.0 mph 23.0 mph 68 % 0.00 in
21:16 43.2 °F 33.6 °F 29.99 in West 7.0 mph 20.0 mph 69 % 0.00 in
21:21 43.0 °F 33.4 °F 29.99 in NW 6.0 mph 19.0 mph 69 % 0.00 in
21:43 42.4 °F 32.7 °F 30.00 in NW 8.0 mph 18.0 mph 68 % 0.00 in
21:56 42.1 °F 32.0 °F 30.00 in NW 10.0 mph 21.0 mph 67 % 0.00 in
22:03 41.9 °F 31.8 °F 30.01 in NE 10.0 mph 20.0 mph 67 % 0.00 in
22:09 41.7 °F 31.6 °F 30.01 in NNW 5.0 mph 20.0 mph 67 % 0.00 in
22:17 41.7 °F 32.0 °F 30.02 in NW 2.0 mph 19.0 mph 68 % 0.00 in
22:27 41.7 °F 32.4 °F 30.03 in NW 4.0 mph 17.0 mph 69 % 0.00 in
22:33 41.4 °F 31.6 °F 30.03 in NW 7.0 mph 14.0 mph 68 % 0.00 in
22:43 41.2 °F 31.1 °F 30.04 in North 9.0 mph 20.0 mph 67 % 0.00 in
22:48 41.2 °F 30.7 °F 30.04 in NNW 11.0 mph 20.0 mph 66 % 0.00 in
22:58 41.2 °F 30.4 °F 30.04 in NW 6.0 mph 17.0 mph 65 % 0.00 in
23:06 41.2 °F 30.4 °F 30.04 in WNW 6.0 mph 17.0 mph 65 % 0.00 in
23:13 41.2 °F 30.4 °F 30.05 in North 9.0 mph 17.0 mph 65 % 0.00 in
23:59 39.2 °F 26.1 °F 30.07 in NW 10.0 mph 24.0 mph 59 % 0.00 in
Spring, Texas: Villages of Bridgestone
Compliments of Weather Underground - 2 mb

Script developed by  Jim McMurry - jmcmurry@mwt.net Adapted for the template by  Wim van der Kuil - Leuven-Template.eu

You find our weather info also at:

UK Metoffice

WeatherCloud

Weather Underground

Mid-South Weather Network

AWEKAS

Citizen Weather Observer Program (CWOP)

HAMweather, WeatherForYou, PWS Weather

Equipment we use:

Weather-station
Davis Vantage Vue

Weather-program
Meteohub

Weather-server
Debian 7.9 x86 (Guest)

Provider
DreamHost

Davis Vantage Vue

Meteohub

Debian 7.9 x86 (Guest)

DreamHost